sensor_id;sensor_type;location;lat;lon;timestamp;P1;durP1;ratioP1;P2;durP2;ratioP2
76259;SDS011;65076;52.362;6.588;2022-12-05T00:01:58;33.15;;;15.82;;
76259;SDS011;65076;52.362;6.588;2022-12-05T00:04:27;36.47;;;15.20;;
76259;SDS011;65076;52.362;6.588;2022-12-05T00:06:55;37.33;;;17.17;;
76259;SDS011;65076;52.362;6.588;2022-12-05T00:09:24;37.72;;;16.88;;
76259;SDS011;65076;52.362;6.588;2022-12-05T00:11:52;30.15;;;13.75;;
76259;SDS011;65076;52.362;6.588;2022-12-05T00:14:20;32.78;;;15.98;;
76259;SDS011;65076;52.362;6.588;2022-12-05T00:16:47;25.52;;;10.82;;
76259;SDS011;65076;52.362;6.588;2022-12-05T00:19:15;36.33;;;16.58;;
76259;SDS011;65076;52.362;6.588;2022-12-05T00:21:43;34.20;;;16.02;;
76259;SDS011;65076;52.362;6.588;2022-12-05T00:24:12;36.53;;;15.52;;
76259;SDS011;65076;52.362;6.588;2022-12-05T00:29:11;29.98;;;13.45;;
76259;SDS011;65076;52.362;6.588;2022-12-05T00:31:39;35.00;;;15.48;;
76259;SDS011;65076;52.362;6.588;2022-12-05T00:34:07;37.22;;;16.05;;
76259;SDS011;65076;52.362;6.588;2022-12-05T00:36:35;34.78;;;16.17;;
76259;SDS011;65076;52.362;6.588;2022-12-05T00:39:05;39.47;;;16.33;;
76259;SDS011;65076;52.362;6.588;2022-12-05T00:41:35;36.72;;;15.52;;
76259;SDS011;65076;52.362;6.588;2022-12-05T00:44:05;35.75;;;16.63;;
76259;SDS011;65076;52.362;6.588;2022-12-05T00:46:33;37.05;;;15.18;;
76259;SDS011;65076;52.362;6.588;2022-12-05T00:49:03;39.00;;;16.65;;
76259;SDS011;65076;52.362;6.588;2022-12-05T00:51:33;36.83;;;15.82;;
76259;SDS011;65076;52.362;6.588;2022-12-05T00:54:06;33.97;;;15.60;;
76259;SDS011;65076;52.362;6.588;2022-12-05T00:56:36;38.50;;;15.65;;
76259;SDS011;65076;52.362;6.588;2022-12-05T00:59:07;37.42;;;15.23;;
76259;SDS011;65076;52.362;6.588;2022-12-05T01:01:40;39.75;;;16.83;;
76259;SDS011;65076;52.362;6.588;2022-12-05T01:04:11;43.20;;;19.10;;
76259;SDS011;65076;52.362;6.588;2022-12-05T01:06:42;36.85;;;18.70;;
76259;SDS011;65076;52.362;6.588;2022-12-05T01:09:11;37.53;;;17.30;;
76259;SDS011;65076;52.362;6.588;2022-12-05T01:11:41;37.03;;;16.20;;
76259;SDS011;65076;52.362;6.588;2022-12-05T01:14:12;37.60;;;16.45;;
76259;SDS011;65076;52.362;6.588;2022-12-05T01:16:42;34.90;;;17.25;;
76259;SDS011;65076;52.362;6.588;2022-12-05T01:19:13;36.03;;;15.70;;
76259;SDS011;65076;52.362;6.588;2022-12-05T01:21:45;32.40;;;15.10;;
76259;SDS011;65076;52.362;6.588;2022-12-05T01:24:13;43.08;;;17.85;;
76259;SDS011;65076;52.362;6.588;2022-12-05T01:26:43;39.10;;;18.85;;
76259;SDS011;65076;52.362;6.588;2022-12-05T01:29:14;34.72;;;16.13;;
76259;SDS011;65076;52.362;6.588;2022-12-05T01:31:45;38.97;;;16.80;;
76259;SDS011;65076;52.362;6.588;2022-12-05T01:34:15;35.50;;;16.05;;
76259;SDS011;65076;52.362;6.588;2022-12-05T01:39:13;36.45;;;15.93;;
76259;SDS011;65076;52.362;6.588;2022-12-05T01:41:42;42.00;;;17.17;;
76259;SDS011;65076;52.362;6.588;2022-12-05T01:47:31;38.63;;;15.85;;
76259;SDS011;65076;52.362;6.588;2022-12-05T01:50:03;37.67;;;17.05;;
76259;SDS011;65076;52.362;6.588;2022-12-05T01:52:33;30.27;;;15.48;;
76259;SDS011;65076;52.362;6.588;2022-12-05T01:55:04;35.83;;;15.85;;
76259;SDS011;65076;52.362;6.588;2022-12-05T01:57:37;35.15;;;15.40;;
76259;SDS011;65076;52.362;6.588;2022-12-05T02:00:09;38.35;;;15.35;;
76259;SDS011;65076;52.362;6.588;2022-12-05T02:02:41;40.85;;;16.38;;
76259;SDS011;65076;52.362;6.588;2022-12-05T02:05:16;35.22;;;15.38;;
76259;SDS011;65076;52.362;6.588;2022-12-05T02:07:48;32.33;;;14.68;;
76259;SDS011;65076;52.362;6.588;2022-12-05T02:10:16;34.42;;;14.93;;
76259;SDS011;65076;52.362;6.588;2022-12-05T02:12:45;32.88;;;14.05;;
76259;SDS011;65076;52.362;6.588;2022-12-05T02:15:34;32.85;;;14.82;;
76259;SDS011;65076;52.362;6.588;2022-12-05T02:18:20;40.42;;;15.38;;
76259;SDS011;65076;52.362;6.588;2022-12-05T02:21:04;33.08;;;14.05;;
76259;SDS011;65076;52.362;6.588;2022-12-05T02:23:59;35.53;;;13.73;;
76259;SDS011;65076;52.362;6.588;2022-12-05T02:26:58;30.70;;;14.40;;
76259;SDS011;65076;52.362;6.588;2022-12-05T02:29:57;37.45;;;15.23;;
76259;SDS011;65076;52.362;6.588;2022-12-05T02:32:34;32.38;;;13.88;;
76259;SDS011;65076;52.362;6.588;2022-12-05T02:35:20;33.38;;;13.75;;
76259;SDS011;65076;52.362;6.588;2022-12-05T02:38:06;28.92;;;13.32;;
76259;SDS011;65076;52.362;6.588;2022-12-05T02:40:49;36.15;;;13.70;;
76259;SDS011;65076;52.362;6.588;2022-12-05T02:43:29;29.42;;;14.02;;
76259;SDS011;65076;52.362;6.588;2022-12-05T02:46:07;34.85;;;13.48;;
76259;SDS011;65076;52.362;6.588;2022-12-05T02:48:40;31.13;;;14.05;;
76259;SDS011;65076;52.362;6.588;2022-12-05T02:51:13;32.85;;;13.43;;
76259;SDS011;65076;52.362;6.588;2022-12-05T02:53:46;28.35;;;13.05;;
76259;SDS011;65076;52.362;6.588;2022-12-05T02:56:17;23.58;;;11.48;;
76259;SDS011;65076;52.362;6.588;2022-12-05T02:58:47;33.30;;;14.38;;
76259;SDS011;65076;52.362;6.588;2022-12-05T03:01:22;25.40;;;11.48;;
76259;SDS011;65076;52.362;6.588;2022-12-05T03:03:55;29.02;;;13.90;;
76259;SDS011;65076;52.362;6.588;2022-12-05T03:06:28;33.78;;;14.30;;
76259;SDS011;65076;52.362;6.588;2022-12-05T03:09:01;30.23;;;13.40;;
76259;SDS011;65076;52.362;6.588;2022-12-05T03:11:36;32.58;;;14.32;;
76259;SDS011;65076;52.362;6.588;2022-12-05T03:14:12;29.35;;;13.68;;
76259;SDS011;65076;52.362;6.588;2022-12-05T03:16:49;28.70;;;13.65;;
76259;SDS011;65076;52.362;6.588;2022-12-05T03:19:22;26.77;;;11.77;;
76259;SDS011;65076;52.362;6.588;2022-12-05T03:21:57;25.90;;;12.20;;
76259;SDS011;65076;52.362;6.588;2022-12-05T03:24:29;28.83;;;12.05;;
76259;SDS011;65076;52.362;6.588;2022-12-05T03:27:03;26.77;;;12.18;;
76259;SDS011;65076;52.362;6.588;2022-12-05T03:29:43;27.85;;;12.15;;
76259;SDS011;65076;52.362;6.588;2022-12-05T03:32:20;31.30;;;13.30;;
76259;SDS011;65076;52.362;6.588;2022-12-05T03:34:57;28.40;;;12.63;;
76259;SDS011;65076;52.362;6.588;2022-12-05T03:37:38;28.92;;;12.63;;
76259;SDS011;65076;52.362;6.588;2022-12-05T03:40:20;28.45;;;13.50;;
76259;SDS011;65076;52.362;6.588;2022-12-05T03:42:58;30.90;;;13.38;;
76259;SDS011;65076;52.362;6.588;2022-12-05T03:45:36;29.38;;;13.38;;
76259;SDS011;65076;52.362;6.588;2022-12-05T03:48:15;27.95;;;14.05;;
76259;SDS011;65076;52.362;6.588;2022-12-05T03:50:54;29.73;;;13.52;;
76259;SDS011;65076;52.362;6.588;2022-12-05T03:53:26;27.08;;;13.30;;
76259;SDS011;65076;52.362;6.588;2022-12-05T03:56:01;25.85;;;11.88;;
76259;SDS011;65076;52.362;6.588;2022-12-05T03:58:35;26.45;;;12.70;;
76259;SDS011;65076;52.362;6.588;2022-12-05T04:01:15;25.60;;;12.52;;
76259;SDS011;65076;52.362;6.588;2022-12-05T04:03:50;28.55;;;13.82;;
76259;SDS011;65076;52.362;6.588;2022-12-05T04:06:24;26.77;;;13.80;;
76259;SDS011;65076;52.362;6.588;2022-12-05T04:09:01;27.25;;;12.52;;
76259;SDS011;65076;52.362;6.588;2022-12-05T04:11:44;28.30;;;14.48;;
76259;SDS011;65076;52.362;6.588;2022-12-05T04:14:21;26.63;;;12.80;;
76259;SDS011;65076;52.362;6.588;2022-12-05T04:16:59;22.80;;;12.00;;
76259;SDS011;65076;52.362;6.588;2022-12-05T04:19:35;24.58;;;11.90;;
76259;SDS011;65076;52.362;6.588;2022-12-05T04:22:27;28.15;;;13.82;;
76259;SDS011;65076;52.362;6.588;2022-12-05T04:24:57;27.63;;;12.48;;
76259;SDS011;65076;52.362;6.588;2022-12-05T04:27:48;28.88;;;13.95;;
76259;SDS011;65076;52.362;6.588;2022-12-05T04:30:24;31.38;;;13.73;;
76259;SDS011;65076;52.362;6.588;2022-12-05T04:33:03;28.23;;;14.18;;
76259;SDS011;65076;52.362;6.588;2022-12-05T04:35:39;26.30;;;13.43;;
76259;SDS011;65076;52.362;6.588;2022-12-05T04:38:14;27.13;;;13.35;;
76259;SDS011;65076;52.362;6.588;2022-12-05T04:40:52;25.27;;;13.25;;
76259;SDS011;65076;52.362;6.588;2022-12-05T04:43:25;29.52;;;14.55;;
76259;SDS011;65076;52.362;6.588;2022-12-05T04:45:57;25.98;;;12.63;;
76259;SDS011;65076;52.362;6.588;2022-12-05T04:48:29;29.02;;;14.05;;
76259;SDS011;65076;52.362;6.588;2022-12-05T04:51:04;29.00;;;14.50;;
76259;SDS011;65076;52.362;6.588;2022-12-05T04:53:39;26.92;;;13.25;;
76259;SDS011;65076;52.362;6.588;2022-12-05T04:56:13;29.50;;;14.40;;
76259;SDS011;65076;52.362;6.588;2022-12-05T04:58:45;28.60;;;12.98;;
76259;SDS011;65076;52.362;6.588;2022-12-05T05:01:14;27.67;;;12.75;;
76259;SDS011;65076;52.362;6.588;2022-12-05T05:03:50;28.65;;;13.15;;
76259;SDS011;65076;52.362;6.588;2022-12-05T05:06:25;24.95;;;11.77;;
76259;SDS011;65076;52.362;6.588;2022-12-05T05:08:54;26.25;;;15.07;;
76259;SDS011;65076;52.362;6.588;2022-12-05T05:11:25;26.40;;;13.82;;
76259;SDS011;65076;52.362;6.588;2022-12-05T05:13:56;32.13;;;15.10;;
76259;SDS011;65076;52.362;6.588;2022-12-05T05:16:25;30.38;;;13.98;;
76259;SDS011;65076;52.362;6.588;2022-12-05T05:18:56;31.60;;;14.95;;
76259;SDS011;65076;52.362;6.588;2022-12-05T05:21:26;30.17;;;13.77;;
76259;SDS011;65076;52.362;6.588;2022-12-05T05:23:57;26.50;;;14.02;;
76259;SDS011;65076;52.362;6.588;2022-12-05T05:26:26;30.05;;;14.40;;
76259;SDS011;65076;52.362;6.588;2022-12-05T05:28:56;28.45;;;12.88;;
76259;SDS011;65076;52.362;6.588;2022-12-05T05:31:24;26.90;;;12.77;;
76259;SDS011;65076;52.362;6.588;2022-12-05T05:33:53;26.17;;;13.43;;
76259;SDS011;65076;52.362;6.588;2022-12-05T05:36:24;29.98;;;12.77;;
76259;SDS011;65076;52.362;6.588;2022-12-05T05:38:55;26.08;;;12.90;;
76259;SDS011;65076;52.362;6.588;2022-12-05T05:41:26;24.45;;;11.23;;
76259;SDS011;65076;52.362;6.588;2022-12-05T05:43:57;31.35;;;13.70;;
76259;SDS011;65076;52.362;6.588;2022-12-05T05:46:27;25.25;;;13.43;;
76259;SDS011;65076;52.362;6.588;2022-12-05T05:48:57;24.90;;;11.77;;
76259;SDS011;65076;52.362;6.588;2022-12-05T05:51:27;21.98;;;10.93;;
76259;SDS011;65076;52.362;6.588;2022-12-05T05:53:55;25.80;;;12.50;;
76259;SDS011;65076;52.362;6.588;2022-12-05T05:56:25;23.00;;;11.77;;
76259;SDS011;65076;52.362;6.588;2022-12-05T05:58:54;25.92;;;12.52;;
76259;SDS011;65076;52.362;6.588;2022-12-05T06:01:24;22.85;;;12.52;;
76259;SDS011;65076;52.362;6.588;2022-12-05T06:03:52;30.20;;;12.40;;
76259;SDS011;65076;52.362;6.588;2022-12-05T06:06:20;27.92;;;12.35;;
76259;SDS011;65076;52.362;6.588;2022-12-05T06:08:49;27.55;;;12.73;;
76259;SDS011;65076;52.362;6.588;2022-12-05T06:11:18;29.30;;;13.75;;
76259;SDS011;65076;52.362;6.588;2022-12-05T06:13:52;27.30;;;12.63;;
76259;SDS011;65076;52.362;6.588;2022-12-05T06:16:21;27.60;;;13.90;;
76259;SDS011;65076;52.362;6.588;2022-12-05T06:18:50;27.38;;;13.60;;
76259;SDS011;65076;52.362;6.588;2022-12-05T06:21:19;25.60;;;12.98;;
76259;SDS011;65076;52.362;6.588;2022-12-05T06:23:52;29.77;;;14.52;;
76259;SDS011;65076;52.362;6.588;2022-12-05T06:26:21;30.90;;;15.02;;
76259;SDS011;65076;52.362;6.588;2022-12-05T06:28:49;26.38;;;13.40;;
76259;SDS011;65076;52.362;6.588;2022-12-05T06:31:18;25.70;;;12.18;;
76259;SDS011;65076;52.362;6.588;2022-12-05T06:33:49;31.88;;;14.30;;
76259;SDS011;65076;52.362;6.588;2022-12-05T06:36:18;27.50;;;13.38;;
76259;SDS011;65076;52.362;6.588;2022-12-05T06:38:48;26.88;;;12.32;;
76259;SDS011;65076;52.362;6.588;2022-12-05T06:41:18;24.90;;;11.73;;
76259;SDS011;65076;52.362;6.588;2022-12-05T06:43:50;26.15;;;13.02;;
76259;SDS011;65076;52.362;6.588;2022-12-05T06:46:27;24.88;;;13.57;;
76259;SDS011;65076;52.362;6.588;2022-12-05T06:48:55;30.33;;;13.38;;
76259;SDS011;65076;52.362;6.588;2022-12-05T06:51:24;29.00;;;13.38;;
76259;SDS011;65076;52.362;6.588;2022-12-05T06:53:53;25.00;;;13.27;;
76259;SDS011;65076;52.362;6.588;2022-12-05T06:56:23;21.88;;;12.07;;
76259;SDS011;65076;52.362;6.588;2022-12-05T06:58:51;31.98;;;14.27;;
76259;SDS011;65076;52.362;6.588;2022-12-05T07:01:21;28.92;;;12.65;;
76259;SDS011;65076;52.362;6.588;2022-12-05T07:04:09;31.90;;;13.95;;
76259;SDS011;65076;52.362;6.588;2022-12-05T07:06:41;39.58;;;18.30;;
76259;SDS011;65076;52.362;6.588;2022-12-05T07:09:16;29.30;;;13.30;;
76259;SDS011;65076;52.362;6.588;2022-12-05T07:11:47;29.42;;;14.02;;
76259;SDS011;65076;52.362;6.588;2022-12-05T07:14:17;32.85;;;13.85;;
76259;SDS011;65076;52.362;6.588;2022-12-05T07:17:05;29.02;;;13.88;;
76259;SDS011;65076;52.362;6.588;2022-12-05T07:19:33;28.15;;;13.38;;
76259;SDS011;65076;52.362;6.588;2022-12-05T07:22:01;28.90;;;15.27;;
76259;SDS011;65076;52.362;6.588;2022-12-05T07:24:29;27.33;;;12.95;;
76259;SDS011;65076;52.362;6.588;2022-12-05T07:26:59;30.05;;;13.73;;
76259;SDS011;65076;52.362;6.588;2022-12-05T07:29:27;29.70;;;12.57;;
76259;SDS011;65076;52.362;6.588;2022-12-05T07:31:55;25.25;;;12.95;;
76259;SDS011;65076;52.362;6.588;2022-12-05T07:34:23;26.65;;;14.07;;
76259;SDS011;65076;52.362;6.588;2022-12-05T07:36:51;31.73;;;14.00;;
76259;SDS011;65076;52.362;6.588;2022-12-05T07:39:20;29.02;;;12.93;;
76259;SDS011;65076;52.362;6.588;2022-12-05T07:41:48;29.73;;;13.70;;
76259;SDS011;65076;52.362;6.588;2022-12-05T07:44:17;28.95;;;13.93;;
76259;SDS011;65076;52.362;6.588;2022-12-05T07:46:48;26.70;;;13.65;;
76259;SDS011;65076;52.362;6.588;2022-12-05T07:49:16;31.38;;;14.32;;
76259;SDS011;65076;52.362;6.588;2022-12-05T07:51:43;28.33;;;13.57;;
76259;SDS011;65076;52.362;6.588;2022-12-05T07:54:11;28.83;;;13.82;;
76259;SDS011;65076;52.362;6.588;2022-12-05T07:56:39;32.08;;;14.18;;
76259;SDS011;65076;52.362;6.588;2022-12-05T07:59:13;28.33;;;13.82;;
76259;SDS011;65076;52.362;6.588;2022-12-05T08:01:42;28.77;;;13.52;;
76259;SDS011;65076;52.362;6.588;2022-12-05T08:07:15;24.52;;;12.90;;
76259;SDS011;65076;52.362;6.588;2022-12-05T08:09:43;29.73;;;14.77;;
76259;SDS011;65076;52.362;6.588;2022-12-05T08:12:11;29.15;;;13.15;;
76259;SDS011;65076;52.362;6.588;2022-12-05T08:14:38;27.27;;;13.98;;
76259;SDS011;65076;52.362;6.588;2022-12-05T08:17:07;30.35;;;14.80;;
76259;SDS011;65076;52.362;6.588;2022-12-05T08:19:36;27.30;;;14.43;;
76259;SDS011;65076;52.362;6.588;2022-12-05T08:22:04;23.08;;;11.57;;
76259;SDS011;65076;52.362;6.588;2022-12-05T08:24:31;25.67;;;13.18;;
76259;SDS011;65076;52.362;6.588;2022-12-05T08:26:59;26.60;;;12.82;;
76259;SDS011;65076;52.362;6.588;2022-12-05T08:29:27;28.45;;;13.80;;
76259;SDS011;65076;52.362;6.588;2022-12-05T08:31:55;24.60;;;13.00;;
76259;SDS011;65076;52.362;6.588;2022-12-05T08:34:25;21.05;;;11.60;;
76259;SDS011;65076;52.362;6.588;2022-12-05T08:36:52;22.75;;;10.25;;
76259;SDS011;65076;52.362;6.588;2022-12-05T08:39:22;18.38;;;9.65;;
76259;SDS011;65076;52.362;6.588;2022-12-05T08:41:49;25.88;;;11.95;;
76259;SDS011;65076;52.362;6.588;2022-12-05T08:44:17;23.98;;;13.10;;
76259;SDS011;65076;52.362;6.588;2022-12-05T08:46:46;24.10;;;12.18;;
76259;SDS011;65076;52.362;6.588;2022-12-05T08:49:16;19.80;;;10.90;;
76259;SDS011;65076;52.362;6.588;2022-12-05T08:51:46;21.40;;;12.15;;
76259;SDS011;65076;52.362;6.588;2022-12-05T08:54:14;20.20;;;11.93;;
76259;SDS011;65076;52.362;6.588;2022-12-05T08:56:42;22.38;;;10.98;;
76259;SDS011;65076;52.362;6.588;2022-12-05T08:59:10;23.60;;;11.05;;
76259;SDS011;65076;52.362;6.588;2022-12-05T09:01:38;17.83;;;10.65;;
76259;SDS011;65076;52.362;6.588;2022-12-05T09:04:07;22.77;;;11.32;;
76259;SDS011;65076;52.362;6.588;2022-12-05T09:06:35;21.73;;;10.93;;
76259;SDS011;65076;52.362;6.588;2022-12-05T09:09:06;27.40;;;10.82;;
76259;SDS011;65076;52.362;6.588;2022-12-05T09:11:38;19.58;;;10.90;;
76259;SDS011;65076;52.362;6.588;2022-12-05T09:14:11;20.58;;;10.20;;
76259;SDS011;65076;52.362;6.588;2022-12-05T09:16:40;22.52;;;10.50;;
76259;SDS011;65076;52.362;6.588;2022-12-05T09:19:12;19.67;;;10.30;;
76259;SDS011;65076;52.362;6.588;2022-12-05T09:21:42;23.40;;;10.82;;
76259;SDS011;65076;52.362;6.588;2022-12-05T09:24:11;20.48;;;11.18;;
76259;SDS011;65076;52.362;6.588;2022-12-05T09:26:40;20.10;;;11.43;;
76259;SDS011;65076;52.362;6.588;2022-12-05T09:29:10;19.75;;;10.27;;
76259;SDS011;65076;52.362;6.588;2022-12-05T09:31:42;23.98;;;11.20;;
76259;SDS011;65076;52.362;6.588;2022-12-05T09:34:12;23.00;;;10.18;;
76259;SDS011;65076;52.362;6.588;2022-12-05T09:36:43;19.52;;;10.40;;
76259;SDS011;65076;52.362;6.588;2022-12-05T09:39:12;21.70;;;10.23;;
76259;SDS011;65076;52.362;6.588;2022-12-05T09:41:45;19.60;;;10.30;;
76259;SDS011;65076;52.362;6.588;2022-12-05T09:44:43;19.08;;;9.55;;
76259;SDS011;65076;52.362;6.588;2022-12-05T09:47:45;20.15;;;9.68;;
76259;SDS011;65076;52.362;6.588;2022-12-05T09:50:22;20.95;;;8.77;;
76259;SDS011;65076;52.362;6.588;2022-12-05T09:52:57;20.02;;;10.40;;
76259;SDS011;65076;52.362;6.588;2022-12-05T09:55:39;19.60;;;9.27;;
76259;SDS011;65076;52.362;6.588;2022-12-05T09:58:16;18.85;;;8.35;;
76259;SDS011;65076;52.362;6.588;2022-12-05T10:00:53;12.85;;;7.93;;
76259;SDS011;65076;52.362;6.588;2022-12-05T10:03:32;17.17;;;8.50;;
76259;SDS011;65076;52.362;6.588;2022-12-05T10:06:12;14.73;;;8.35;;
76259;SDS011;65076;52.362;6.588;2022-12-05T10:09:00;15.68;;;7.88;;
76259;SDS011;65076;52.362;6.588;2022-12-05T10:11:50;18.58;;;8.00;;
76259;SDS011;65076;52.362;6.588;2022-12-05T10:14:30;16.20;;;8.02;;
76259;SDS011;65076;52.362;6.588;2022-12-05T10:17:15;12.38;;;6.80;;
76259;SDS011;65076;52.362;6.588;2022-12-05T10:19:55;13.82;;;7.00;;
76259;SDS011;65076;52.362;6.588;2022-12-05T10:22:39;14.98;;;7.53;;
76259;SDS011;65076;52.362;6.588;2022-12-05T10:25:16;13.98;;;7.10;;
76259;SDS011;65076;52.362;6.588;2022-12-05T10:27:50;13.05;;;6.60;;
76259;SDS011;65076;52.362;6.588;2022-12-05T10:30:20;12.32;;;6.93;;
76259;SDS011;65076;52.362;6.588;2022-12-05T10:32:51;12.20;;;6.70;;
76259;SDS011;65076;52.362;6.588;2022-12-05T10:35:22;13.07;;;6.70;;
76259;SDS011;65076;52.362;6.588;2022-12-05T10:37:53;13.10;;;7.30;;
76259;SDS011;65076;52.362;6.588;2022-12-05T10:40:25;12.02;;;6.93;;
76259;SDS011;65076;52.362;6.588;2022-12-05T10:43:01;12.35;;;7.28;;
76259;SDS011;65076;52.362;6.588;2022-12-05T10:45:30;12.75;;;6.82;;
76259;SDS011;65076;52.362;6.588;2022-12-05T10:47:58;10.55;;;5.78;;
76259;SDS011;65076;52.362;6.588;2022-12-05T10:50:27;9.00;;;5.40;;
76259;SDS011;65076;52.362;6.588;2022-12-05T10:52:59;11.52;;;6.05;;
76259;SDS011;65076;52.362;6.588;2022-12-05T10:55:41;11.45;;;5.70;;
76259;SDS011;65076;52.362;6.588;2022-12-05T10:58:33;11.57;;;6.53;;
76259;SDS011;65076;52.362;6.588;2022-12-05T11:01:06;8.77;;;5.40;;
76259;SDS011;65076;52.362;6.588;2022-12-05T11:03:41;13.25;;;4.95;;
76259;SDS011;65076;52.362;6.588;2022-12-05T11:06:13;8.27;;;4.53;;
76259;SDS011;65076;52.362;6.588;2022-12-05T11:08:49;7.43;;;4.40;;
76259;SDS011;65076;52.362;6.588;2022-12-05T11:11:31;7.15;;;4.07;;
76259;SDS011;65076;52.362;6.588;2022-12-05T11:14:03;7.05;;;3.80;;
76259;SDS011;65076;52.362;6.588;2022-12-05T11:16:35;5.60;;;3.38;;
76259;SDS011;65076;52.362;6.588;2022-12-05T11:19:18;6.20;;;3.40;;
76259;SDS011;65076;52.362;6.588;2022-12-05T11:21:54;7.00;;;3.78;;
76259;SDS011;65076;52.362;6.588;2022-12-05T11:24:25;5.15;;;3.30;;
76259;SDS011;65076;52.362;6.588;2022-12-05T11:26:55;5.57;;;3.35;;
76259;SDS011;65076;52.362;6.588;2022-12-05T11:29:30;5.40;;;2.97;;
76259;SDS011;65076;52.362;6.588;2022-12-05T11:32:02;6.25;;;3.58;;
76259;SDS011;65076;52.362;6.588;2022-12-05T11:34:38;4.50;;;3.00;;
76259;SDS011;65076;52.362;6.588;2022-12-05T11:37:14;8.02;;;3.58;;
76259;SDS011;65076;52.362;6.588;2022-12-05T11:39:51;7.00;;;3.95;;
76259;SDS011;65076;52.362;6.588;2022-12-05T11:42:25;8.75;;;4.78;;
76259;SDS011;65076;52.362;6.588;2022-12-05T11:45:23;7.55;;;4.63;;
76259;SDS011;65076;52.362;6.588;2022-12-05T11:48:17;10.18;;;4.78;;
76259;SDS011;65076;52.362;6.588;2022-12-05T11:51:05;7.38;;;4.97;;
76259;SDS011;65076;52.362;6.588;2022-12-05T11:54:02;10.90;;;4.90;;
76259;SDS011;65076;52.362;6.588;2022-12-05T11:57:14;9.77;;;5.18;;
76259;SDS011;65076;52.362;6.588;2022-12-05T12:00:08;10.85;;;5.10;;
76259;SDS011;65076;52.362;6.588;2022-12-05T12:03:03;9.38;;;4.97;;
76259;SDS011;65076;52.362;6.588;2022-12-05T12:06:05;7.88;;;4.57;;
76259;SDS011;65076;52.362;6.588;2022-12-05T12:11:53;8.38;;;4.88;;
76259;SDS011;65076;52.362;6.588;2022-12-05T12:14:35;8.23;;;4.88;;
76259;SDS011;65076;52.362;6.588;2022-12-05T12:17:15;8.82;;;5.57;;
76259;SDS011;65076;52.362;6.588;2022-12-05T12:20:09;7.18;;;4.20;;
76259;SDS011;65076;52.362;6.588;2022-12-05T12:23:05;7.22;;;4.45;;
76259;SDS011;65076;52.362;6.588;2022-12-05T12:25:58;9.13;;;5.22;;
76259;SDS011;65076;52.362;6.588;2022-12-05T12:28:40;7.65;;;4.00;;
76259;SDS011;65076;52.362;6.588;2022-12-05T12:31:21;6.35;;;3.45;;
76259;SDS011;65076;52.362;6.588;2022-12-05T12:34:36;6.75;;;3.92;;
76259;SDS011;65076;52.362;6.588;2022-12-05T12:37:33;5.53;;;3.30;;
76259;SDS011;65076;52.362;6.588;2022-12-05T12:40:12;6.60;;;3.35;;
76259;SDS011;65076;52.362;6.588;2022-12-05T12:42:51;7.03;;;4.00;;
76259;SDS011;65076;52.362;6.588;2022-12-05T12:45:54;5.68;;;3.33;;
76259;SDS011;65076;52.362;6.588;2022-12-05T12:48:45;5.80;;;3.63;;
76259;SDS011;65076;52.362;6.588;2022-12-05T12:51:32;7.78;;;4.15;;
76259;SDS011;65076;52.362;6.588;2022-12-05T12:54:08;4.93;;;3.40;;
76259;SDS011;65076;52.362;6.588;2022-12-05T12:57:21;6.18;;;3.38;;
76259;SDS011;65076;52.362;6.588;2022-12-05T13:00:03;6.93;;;3.13;;
76259;SDS011;65076;52.362;6.588;2022-12-05T13:02:44;5.72;;;3.50;;
76259;SDS011;65076;52.362;6.588;2022-12-05T13:05:20;8.52;;;3.80;;
76259;SDS011;65076;52.362;6.588;2022-12-05T13:07:58;6.45;;;3.55;;
76259;SDS011;65076;52.362;6.588;2022-12-05T13:10:40;5.65;;;3.28;;
76259;SDS011;65076;52.362;6.588;2022-12-05T13:13:12;6.28;;;3.13;;
76259;SDS011;65076;52.362;6.588;2022-12-05T13:15:48;6.93;;;4.07;;
76259;SDS011;65076;52.362;6.588;2022-12-05T13:18:20;7.68;;;4.03;;
76259;SDS011;65076;52.362;6.588;2022-12-05T13:20:52;7.05;;;3.10;;
76259;SDS011;65076;52.362;6.588;2022-12-05T13:23:22;4.90;;;3.20;;
76259;SDS011;65076;52.362;6.588;2022-12-05T13:25:57;7.05;;;3.03;;
76259;SDS011;65076;52.362;6.588;2022-12-05T13:28:28;5.68;;;3.00;;
76259;SDS011;65076;52.362;6.588;2022-12-05T13:31:00;5.95;;;3.47;;
76259;SDS011;65076;52.362;6.588;2022-12-05T13:33:32;4.90;;;2.67;;
76259;SDS011;65076;52.362;6.588;2022-12-05T13:36:04;6.38;;;2.97;;
76259;SDS011;65076;52.362;6.588;2022-12-05T13:38:57;5.07;;;3.22;;
76259;SDS011;65076;52.362;6.588;2022-12-05T13:41:47;5.55;;;3.17;;
76259;SDS011;65076;52.362;6.588;2022-12-05T13:44:38;7.40;;;2.97;;
76259;SDS011;65076;52.362;6.588;2022-12-05T13:47:21;6.15;;;3.88;;
76259;SDS011;65076;52.362;6.588;2022-12-05T13:50:00;6.22;;;3.50;;
76259;SDS011;65076;52.362;6.588;2022-12-05T13:52:42;6.45;;;3.20;;
76259;SDS011;65076;52.362;6.588;2022-12-05T13:55:19;6.13;;;3.03;;
76259;SDS011;65076;52.362;6.588;2022-12-05T13:58:03;5.55;;;2.80;;
76259;SDS011;65076;52.362;6.588;2022-12-05T14:07:38;5.22;;;2.85;;
76259;SDS011;65076;52.362;6.588;2022-12-05T14:10:09;6.25;;;3.45;;
76259;SDS011;65076;52.362;6.588;2022-12-05T14:12:45;5.97;;;2.78;;
76259;SDS011;65076;52.362;6.588;2022-12-05T14:15:27;7.78;;;3.20;;
76259;SDS011;65076;52.362;6.588;2022-12-05T14:17:59;5.68;;;3.13;;
76259;SDS011;65076;52.362;6.588;2022-12-05T14:20:42;6.88;;;3.05;;
76259;SDS011;65076;52.362;6.588;2022-12-05T14:26:31;5.97;;;2.67;;
76259;SDS011;65076;52.362;6.588;2022-12-05T14:29:16;4.50;;;2.70;;
76259;SDS011;65076;52.362;6.588;2022-12-05T14:32:06;4.57;;;3.00;;
76259;SDS011;65076;52.362;6.588;2022-12-05T14:34:52;7.45;;;3.28;;
76259;SDS011;65076;52.362;6.588;2022-12-05T14:37:28;5.20;;;3.33;;
76259;SDS011;65076;52.362;6.588;2022-12-05T14:39:59;3.72;;;2.92;;
76259;SDS011;65076;52.362;6.588;2022-12-05T14:42:48;6.55;;;3.20;;
76259;SDS011;65076;52.362;6.588;2022-12-05T14:45:22;5.88;;;3.30;;
76259;SDS011;65076;52.362;6.588;2022-12-05T14:47:58;7.45;;;4.07;;
76259;SDS011;65076;52.362;6.588;2022-12-05T14:50:33;8.05;;;3.42;;
76259;SDS011;65076;52.362;6.588;2022-12-05T14:56:02;7.07;;;3.22;;
76259;SDS011;65076;52.362;6.588;2022-12-05T14:58:42;6.68;;;2.88;;
76259;SDS011;65076;52.362;6.588;2022-12-05T15:01:17;5.00;;;2.78;;
76259;SDS011;65076;52.362;6.588;2022-12-05T15:04:02;6.07;;;2.97;;
76259;SDS011;65076;52.362;6.588;2022-12-05T15:06:46;6.70;;;3.58;;
76259;SDS011;65076;52.362;6.588;2022-12-05T15:09:29;4.05;;;2.85;;
76259;SDS011;65076;52.362;6.588;2022-12-05T15:12:10;5.80;;;3.30;;
76259;SDS011;65076;52.362;6.588;2022-12-05T15:14:44;6.72;;;3.10;;
76259;SDS011;65076;52.362;6.588;2022-12-05T15:17:21;7.93;;;4.00;;
76259;SDS011;65076;52.362;6.588;2022-12-05T15:19:58;5.68;;;3.03;;
76259;SDS011;65076;52.362;6.588;2022-12-05T15:22:36;7.13;;;3.38;;
76259;SDS011;65076;52.362;6.588;2022-12-05T15:25:14;6.10;;;3.03;;
76259;SDS011;65076;52.362;6.588;2022-12-05T15:27:55;5.78;;;2.85;;
76259;SDS011;65076;52.362;6.588;2022-12-05T15:30:28;6.47;;;2.88;;
76259;SDS011;65076;52.362;6.588;2022-12-05T15:32:58;5.10;;;3.13;;
76259;SDS011;65076;52.362;6.588;2022-12-05T15:35:31;6.30;;;3.70;;
76259;SDS011;65076;52.362;6.588;2022-12-05T15:38:03;3.83;;;2.38;;
76259;SDS011;65076;52.362;6.588;2022-12-05T15:40:49;6.13;;;3.00;;
76259;SDS011;65076;52.362;6.588;2022-12-05T15:43:24;4.32;;;2.45;;
76259;SDS011;65076;52.362;6.588;2022-12-05T15:46:06;4.63;;;2.75;;